createdAt,value
2023-02-13T00:01:00.539Z,92.63
2023-02-13T00:03:28.635Z,92.66
2023-02-13T00:05:55.576Z,92.72
2023-02-13T00:08:22.491Z,92.79
2023-02-13T00:10:49.320Z,92.81
2023-02-13T00:13:16.677Z,92.95
2023-02-13T00:15:44.920Z,93.04
2023-02-13T00:18:11.904Z,93.16
2023-02-13T00:20:39.101Z,92.82
2023-02-13T00:23:05.923Z,93.13
2023-02-13T00:25:32.939Z,92.66
2023-02-13T00:27:59.836Z,93.19
2023-02-13T00:30:26.897Z,92.77
2023-02-13T00:32:55.165Z,92.65
2023-02-13T00:35:22.013Z,92.53
2023-02-13T00:37:49.748Z,92.76
2023-02-13T00:40:16.786Z,92.82
2023-02-13T00:42:46.139Z,92.36
2023-02-13T00:45:17.778Z,92.91
2023-02-13T00:47:46.185Z,93.05
2023-02-13T00:50:14.692Z,92.27
2023-02-13T00:52:41.670Z,93.12
2023-02-13T00:55:08.612Z,92.49
2023-02-13T00:57:37.802Z,92.32
2023-02-13T01:00:05.660Z,92.34
2023-02-13T01:02:32.491Z,92.34
2023-02-13T01:04:59.231Z,92.70
2023-02-13T01:07:28.854Z,92.42
2023-02-13T01:09:55.786Z,92.52
2023-02-13T01:12:23.889Z,92.44
2023-02-13T01:14:50.653Z,92.56
2023-02-13T01:17:19.431Z,93.03
2023-02-13T01:19:46.285Z,92.46
2023-02-13T01:22:13.214Z,93.04
2023-02-13T01:24:41.501Z,92.61
2023-02-13T01:27:08.382Z,92.59
2023-02-13T01:29:35.387Z,92.56
2023-02-13T01:32:04.074Z,92.53
2023-02-13T01:34:31.346Z,92.80
2023-02-13T01:37:00.319Z,92.40
2023-02-13T01:39:30.476Z,92.58
2023-02-13T01:41:58.963Z,92.52
2023-02-13T01:44:49.364Z,92.59
2023-02-13T01:47:22.313Z,92.63
2023-02-13T01:49:49.988Z,92.59
2023-02-13T01:52:17.741Z,92.85
2023-02-13T01:54:45.929Z,92.81
2023-02-13T01:57:18.561Z,93.36
2023-02-13T01:59:49.381Z,93.20
2023-02-13T02:02:17.047Z,93.42
2023-02-13T02:04:45.932Z,92.65
2023-02-13T02:07:24.619Z,92.82
2023-02-13T02:09:56.244Z,93.01
2023-02-13T02:12:27.469Z,93.30
2023-02-13T02:14:58.246Z,92.89
2023-02-13T02:17:26.496Z,93.04
2023-02-13T02:20:10.173Z,92.67
2023-02-13T02:23:03.222Z,93.17
2023-02-13T02:26:19.253Z,93.37
2023-02-13T02:29:35.844Z,93.24
2023-02-13T02:32:30.566Z,93.15
2023-02-13T02:35:10.111Z,93.23
2023-02-13T02:37:58.484Z,93.45
2023-02-13T02:40:33.869Z,93.62
2023-02-13T02:43:15.473Z,93.10
2023-02-13T02:45:53.250Z,93.40
2023-02-13T02:48:29.718Z,93.52
2023-02-13T02:51:03.207Z,93.21
2023-02-13T02:53:37.877Z,93.57
2023-02-13T02:56:11.721Z,93.69
2023-02-13T02:58:44.197Z,93.33
2023-02-13T03:01:20.546Z,93.62
2023-02-13T03:03:49.709Z,93.79
2023-02-13T03:06:25.902Z,93.18
2023-02-13T03:08:55.774Z,93.34
2023-02-13T03:11:25.124Z,93.26
2023-02-13T03:13:55.305Z,93.19
2023-02-13T03:16:28.524Z,93.01
2023-02-13T03:18:58.724Z,93.33
2023-02-13T03:21:44.422Z,93.41
2023-02-13T03:24:32.391Z,93.14
2023-02-13T03:27:08.929Z,93.02
2023-02-13T03:29:46.172Z,93.04
2023-02-13T03:32:27.435Z,93.31
2023-02-13T03:35:21.313Z,92.71
2023-02-13T03:37:57.642Z,92.56
2023-02-13T03:40:31.823Z,92.65
2023-02-13T03:43:08.633Z,92.77
2023-02-13T03:45:38.804Z,92.29
2023-02-13T03:48:09.543Z,92.62
2023-02-13T03:50:43.288Z,92.77
2023-02-13T03:53:13.152Z,92.34
2023-02-13T03:55:46.065Z,92.47
2023-02-13T03:58:17.813Z,92.62
2023-02-13T04:00:52.573Z,92.25
2023-02-13T04:03:26.845Z,92.58
2023-02-13T04:06:03.643Z,92.65
2023-02-13T04:08:30.981Z,92.51
2023-02-13T04:11:07.519Z,92.17
2023-02-13T04:13:41.856Z,92.26
2023-02-13T04:16:16.392Z,92.15
2023-02-13T04:18:46.302Z,92.58
2023-02-13T04:21:14.826Z,92.30
2023-02-13T04:23:41.936Z,92.60
2023-02-13T04:26:16.720Z,92.08
2023-02-13T04:28:45.379Z,91.83
2023-02-13T04:31:15.404Z,92.29
2023-02-13T04:33:44.888Z,92.07
2023-02-13T04:36:17.294Z,91.86
2023-02-13T04:38:46.542Z,92.14
2023-02-13T04:41:13.615Z,92.09
2023-02-13T04:43:40.993Z,91.75
2023-02-13T04:46:12.759Z,92.05
2023-02-13T04:48:50.404Z,91.79
2023-02-13T04:51:19.499Z,91.84
2023-02-13T04:53:48.059Z,92.00
2023-02-13T04:56:22.786Z,91.70
2023-02-13T04:58:49.979Z,91.05
2023-02-13T05:01:21.534Z,91.33
2023-02-13T05:03:48.818Z,91.71
2023-02-13T05:06:15.693Z,91.82
2023-02-13T05:08:42.911Z,91.55
2023-02-13T05:11:11.483Z,91.63
2023-02-13T05:13:38.368Z,92.01
2023-02-13T05:16:07.340Z,91.97
2023-02-13T05:18:34.416Z,91.47
2023-02-13T05:21:01.304Z,92.42
2023-02-13T05:23:31.573Z,92.48
2023-02-13T05:25:58.694Z,91.94
2023-02-13T05:28:33.245Z,91.77
2023-02-13T05:31:04.290Z,92.26
2023-02-13T05:33:31.587Z,92.12
2023-02-13T05:35:59.789Z,92.32
2023-02-13T05:38:26.757Z,92.47
2023-02-13T05:40:54.843Z,92.72
2023-02-13T05:43:21.994Z,92.49
2023-02-13T05:46:00.900Z,92.28
2023-02-13T05:48:28.003Z,92.75
2023-02-13T05:50:55.368Z,92.70
2023-02-13T05:54:05.014Z,93.16
2023-02-13T05:56:34.098Z,92.59
2023-02-13T05:59:07.458Z,92.63
2023-02-13T06:01:37.057Z,92.81
2023-02-13T06:04:07.158Z,92.80
2023-02-13T06:06:34.232Z,92.71
2023-02-13T06:09:07.728Z,92.62
2023-02-13T06:11:34.577Z,92.83
2023-02-13T06:14:01.320Z,92.66
2023-02-13T06:16:29.266Z,92.81
2023-02-13T06:19:05.506Z,92.95
2023-02-13T06:21:42.909Z,93.52
2023-02-13T06:24:12.539Z,93.30
2023-02-13T06:26:49.159Z,93.19
2023-02-13T06:29:15.985Z,93.27
2023-02-13T06:31:51.310Z,93.32
2023-02-13T06:34:38.282Z,93.52
2023-02-13T06:40:07.056Z,93.29
2023-02-13T06:42:37.134Z,93.72
2023-02-13T06:45:26.849Z,93.57
2023-02-13T06:47:54.177Z,93.76
2023-02-13T06:50:22.634Z,93.69
2023-02-13T06:52:51.562Z,93.99
2023-02-13T06:55:19.102Z,93.44
2023-02-13T06:58:03.644Z,93.53
2023-02-13T07:00:34.408Z,93.39
2023-02-13T07:03:03.592Z,93.26
2023-02-13T07:05:32.024Z,93.13
2023-02-13T07:07:59.314Z,93.42
2023-02-13T07:10:30.745Z,93.41
2023-02-13T07:13:07.424Z,93.65
2023-02-13T07:18:51.597Z,93.15
2023-02-13T07:21:21.678Z,93.28
2023-02-13T07:23:48.877Z,93.69
2023-02-13T07:26:15.887Z,93.72
2023-02-13T07:28:42.900Z,93.88
2023-02-13T07:31:11.516Z,93.87
2023-02-13T07:33:38.862Z,93.52
2023-02-13T07:36:06.494Z,93.74
2023-02-13T07:38:36.516Z,93.82
2023-02-13T07:41:04.897Z,94.10
2023-02-13T07:43:32.022Z,93.41
2023-02-13T07:46:00.430Z,93.53
2023-02-13T07:48:29.693Z,93.32
2023-02-13T07:51:00.851Z,93.73
2023-02-13T07:53:28.941Z,93.92
2023-02-13T07:55:57.910Z,93.47
2023-02-13T07:58:25.357Z,93.61
2023-02-13T08:00:58.423Z,93.43
2023-02-13T08:03:31.816Z,93.27
2023-02-13T08:06:19.827Z,93.36
2023-02-13T08:08:47.395Z,93.64
2023-02-13T08:11:27.098Z,93.44
2023-02-13T08:13:53.852Z,93.32
2023-02-13T08:16:22.621Z,93.33
2023-02-13T08:18:50.668Z,93.24
2023-02-13T08:21:18.880Z,93.62
2023-02-13T08:23:46.182Z,93.43
2023-02-13T08:26:13.008Z,93.56
2023-02-13T08:28:41.219Z,93.35
2023-02-13T08:31:11.936Z,93.38
2023-02-13T08:33:39.284Z,93.01
2023-02-13T08:36:07.467Z,93.20
2023-02-13T08:38:35.193Z,93.67
2023-02-13T08:41:02.322Z,93.73
2023-02-13T08:43:29.104Z,93.71
2023-02-13T08:46:00.319Z,93.09
2023-02-13T08:48:28.536Z,93.73
2023-02-13T08:50:55.574Z,93.78
2023-02-13T08:53:22.693Z,93.26
2023-02-13T08:55:53.469Z,93.25
2023-02-13T08:58:20.579Z,93.62
2023-02-13T09:00:47.849Z,93.60
2023-02-13T09:03:21.358Z,93.30
2023-02-13T09:05:48.302Z,93.83
2023-02-13T09:08:17.912Z,93.39
2023-02-13T09:10:46.537Z,93.55
2023-02-13T09:13:13.683Z,93.59
2023-02-13T09:15:41.158Z,93.65
2023-02-13T09:18:08.526Z,93.53
2023-02-13T09:20:36.790Z,93.06
2023-02-13T09:23:06.194Z,93.78
2023-02-13T09:25:39.019Z,93.96
2023-02-13T09:28:06.341Z,93.64
2023-02-13T09:30:35.113Z,93.90
2023-02-13T09:33:01.803Z,93.80
2023-02-13T09:35:28.783Z,93.62
2023-02-13T09:37:57.065Z,93.52
2023-02-13T09:40:28.737Z,94.00
2023-02-13T09:43:06.936Z,93.75
2023-02-13T09:45:35.443Z,93.80
2023-02-13T09:48:02.632Z,93.68
2023-02-13T09:50:34.757Z,93.49
2023-02-13T09:53:04.667Z,93.67
2023-02-13T09:55:40.495Z,93.34
2023-02-13T09:58:16.861Z,93.34
2023-02-13T10:00:50.790Z,93.68
2023-02-13T10:03:31.341Z,93.51
2023-02-13T10:06:06.174Z,93.78
2023-02-13T10:08:58.103Z,93.47
2023-02-13T10:11:46.507Z,93.30
2023-02-13T10:14:20.210Z,93.54
2023-02-13T10:16:51.296Z,93.38
2023-02-13T11:19:53.072Z,92.14
2023-02-13T11:22:30.240Z,92.49
2023-02-13T11:24:59.476Z,92.66
2023-02-13T11:27:30.605Z,92.20
2023-02-13T11:29:58.997Z,92.95
2023-02-13T11:32:27.838Z,92.69
2023-02-13T11:34:56.624Z,92.64
2023-02-13T11:37:26.760Z,92.33
2023-02-13T11:39:55.057Z,92.37
2023-02-13T11:42:27.305Z,91.71
2023-02-13T11:44:58.553Z,91.88
2023-02-13T11:47:35.887Z,90.97
2023-02-13T11:50:05.145Z,91.67
2023-02-13T11:52:34.746Z,91.97
2023-02-13T11:55:05.852Z,91.86
2023-02-13T11:57:34.699Z,91.88
2023-02-13T12:00:28.067Z,91.54
2023-02-13T12:02:55.393Z,91.67
2023-02-13T12:05:52.027Z,91.16
2023-02-13T12:08:20.901Z,91.27
2023-02-13T12:10:48.037Z,91.49
2023-02-13T12:13:26.093Z,90.96
2023-02-13T12:16:00.146Z,90.33
2023-02-13T12:18:36.410Z,89.74
2023-02-13T12:21:10.747Z,89.65
2023-02-13T12:23:48.049Z,89.37
2023-02-13T12:26:26.807Z,89.72
2023-02-13T12:29:07.615Z,89.62
2023-02-13T12:31:47.253Z,90.25
2023-02-13T12:34:49.974Z,89.33
2023-02-13T12:37:34.125Z,90.18
2023-02-13T12:40:25.930Z,90.02
2023-02-13T12:43:15.026Z,90.00
2023-02-13T12:45:51.569Z,88.57
2023-02-13T12:48:32.550Z,88.63
2023-02-13T12:51:11.050Z,88.67
2023-02-13T12:53:56.576Z,89.00
2023-02-13T12:56:44.031Z,88.99
2023-02-13T12:59:24.269Z,88.51
2023-02-13T13:02:22.258Z,88.47
2023-02-13T13:05:03.123Z,88.63
2023-02-13T13:07:46.361Z,88.97
2023-02-13T13:10:31.070Z,89.02
2023-02-13T13:13:10.378Z,87.17
2023-02-13T13:15:49.134Z,87.88
2023-02-13T13:18:32.271Z,88.03
2023-02-13T13:21:10.249Z,87.98
2023-02-13T13:23:51.698Z,88.01
2023-02-13T13:26:25.751Z,86.30
2023-02-13T13:29:02.317Z,86.95
2023-02-13T13:31:30.589Z,87.15
2023-02-13T13:34:09.138Z,87.34
2023-02-13T13:36:45.395Z,87.35
2023-02-13T13:39:27.893Z,87.56
2023-02-13T13:42:04.723Z,87.34
2023-02-13T13:45:00.566Z,85.86
2023-02-13T13:47:40.888Z,85.17
2023-02-13T13:50:19.161Z,85.45
2023-02-13T13:53:08.135Z,85.54
2023-02-13T13:56:16.459Z,85.47
2023-02-13T13:58:48.685Z,86.03
2023-02-13T14:01:25.812Z,85.86
2023-02-13T14:03:54.786Z,85.65
2023-02-13T14:06:27.118Z,85.74
2023-02-13T14:09:00.506Z,85.20
2023-02-13T14:11:55.755Z,85.18
2023-02-13T14:14:51.422Z,85.27
2023-02-13T14:17:57.394Z,84.61
2023-02-13T14:20:37.567Z,84.63
2023-02-13T14:23:26.452Z,84.48
2023-02-13T14:26:30.543Z,84.17
2023-02-13T14:29:08.311Z,84.57
2023-02-13T14:32:02.818Z,84.74
2023-02-13T14:34:34.347Z,84.79
2023-02-13T14:37:19.658Z,84.45
2023-02-13T14:40:34.225Z,83.32
2023-02-13T14:43:15.538Z,84.38
2023-02-13T14:45:49.985Z,84.58
2023-02-13T14:48:17.695Z,84.21
2023-02-13T14:50:52.561Z,84.15
2023-02-13T14:53:24.043Z,84.04
2023-02-13T14:55:57.235Z,83.85
2023-02-13T14:58:29.697Z,84.26
2023-02-13T15:01:02.716Z,83.94
2023-02-13T15:03:37.773Z,84.14
2023-02-13T15:06:17.518Z,83.87
2023-02-13T15:08:49.422Z,83.75
2023-02-13T15:11:36.173Z,83.36
2023-02-13T15:14:24.247Z,83.08
2023-02-13T15:16:56.123Z,83.78
2023-02-13T15:19:24.548Z,83.50
2023-02-13T15:21:59.191Z,83.50
2023-02-13T15:24:27.002Z,83.63
2023-02-13T15:26:59.394Z,83.13
2023-02-13T15:29:40.985Z,82.98
2023-02-13T15:32:24.843Z,82.55
2023-02-13T15:34:54.116Z,82.81
2023-02-13T15:37:27.245Z,82.71
2023-02-13T15:39:54.572Z,82.66
2023-02-13T15:42:22.134Z,82.80
2023-02-13T15:44:51.344Z,82.78
2023-02-13T15:47:30.627Z,82.56
2023-02-13T15:49:58.306Z,82.57
2023-02-13T15:52:32.386Z,82.65
2023-02-13T15:54:59.295Z,82.61
2023-02-13T15:57:27.353Z,82.79
2023-02-13T15:59:55.497Z,82.72
2023-02-13T16:02:27.368Z,82.80
2023-02-13T16:05:03.726Z,82.68
2023-02-13T16:07:47.912Z,82.51
2023-02-13T16:10:15.579Z,82.58
2023-02-13T16:12:47.043Z,82.84
2023-02-13T16:15:15.990Z,82.66
2023-02-13T16:17:48.179Z,82.53
2023-02-13T16:20:21.168Z,82.41
2023-02-13T16:22:55.808Z,82.94
2023-02-13T16:25:27.890Z,82.89
2023-02-13T16:28:00.093Z,82.91
2023-02-13T16:30:34.176Z,82.82
2023-02-13T16:33:29.538Z,82.92
2023-02-13T16:35:58.093Z,83.15
2023-02-13T16:38:36.175Z,83.14
2023-02-13T16:41:06.441Z,83.43
2023-02-13T16:43:53.776Z,83.31
2023-02-13T16:46:25.135Z,83.39
2023-02-13T16:48:59.823Z,83.34
2023-02-13T16:51:33.239Z,83.32
2023-02-13T16:54:05.489Z,83.19
2023-02-13T16:56:42.775Z,83.21
2023-02-13T16:59:23.521Z,83.22
2023-02-13T17:02:04.157Z,83.21
2023-02-13T17:04:31.325Z,83.34
2023-02-13T17:07:00.450Z,83.81
2023-02-13T17:09:31.735Z,83.79
2023-02-13T17:11:58.790Z,84.05
2023-02-13T17:14:25.747Z,84.04
2023-02-13T17:19:51.398Z,83.98
2023-02-13T17:22:26.236Z,84.39
2023-02-13T17:25:01.153Z,84.35
2023-02-13T17:27:28.028Z,84.39
2023-02-13T17:29:54.883Z,84.71
2023-02-13T17:32:25.558Z,84.25
2023-02-13T17:34:53.053Z,84.95
2023-02-13T17:37:22.549Z,84.58
2023-02-13T17:39:50.418Z,85.08
2023-02-13T17:42:22.161Z,84.87
2023-02-13T17:44:49.315Z,85.37
2023-02-13T17:47:16.908Z,84.98
2023-02-13T17:49:46.565Z,84.81
2023-02-13T17:52:17.018Z,85.45
2023-02-13T17:54:44.290Z,85.63
2023-02-13T17:57:14.883Z,85.13
2023-02-13T17:59:43.719Z,85.22
2023-02-13T18:02:15.257Z,85.72
2023-02-13T18:04:42.140Z,85.88
2023-02-13T18:07:13.746Z,85.45
2023-02-13T18:09:40.712Z,85.09
2023-02-13T18:12:12.234Z,85.83
2023-02-13T18:14:39.290Z,85.57
2023-02-13T18:17:07.758Z,85.74
2023-02-13T18:19:34.989Z,85.82
2023-02-13T18:22:01.822Z,85.62
2023-02-13T18:24:29.622Z,85.92
2023-02-13T18:27:05.709Z,85.71
2023-02-13T18:29:32.500Z,86.32
2023-02-13T18:31:59.335Z,86.28
2023-02-13T18:34:29.128Z,86.47
2023-02-13T18:36:56.041Z,86.15
2023-02-13T18:39:23.017Z,86.03
2023-02-13T18:41:49.921Z,86.09
2023-02-13T18:44:28.179Z,85.86
2023-02-13T18:46:57.813Z,86.81
2023-02-13T18:49:26.034Z,86.24
2023-02-13T18:51:55.297Z,86.43
2023-02-13T18:54:22.082Z,86.76
2023-02-13T18:56:49.643Z,86.85
2023-02-13T18:59:16.979Z,86.63
2023-02-13T19:01:44.789Z,86.67
2023-02-13T19:04:12.076Z,86.47
2023-02-13T19:06:43.054Z,87.15
2023-02-13T19:09:19.825Z,86.79
2023-02-13T19:11:46.679Z,86.57
2023-02-13T19:14:14.789Z,86.52
2023-02-13T19:16:42.429Z,87.12
2023-02-13T19:19:09.307Z,87.00
2023-02-13T19:21:40.868Z,87.20
2023-02-13T19:24:11.250Z,87.84
2023-02-13T19:26:41.527Z,88.01
2023-02-13T19:29:09.025Z,87.41
2023-02-13T19:31:35.848Z,87.35
2023-02-13T19:34:03.191Z,87.91
2023-02-13T19:36:30.820Z,88.05
2023-02-13T19:39:02.161Z,88.09
2023-02-13T19:41:29.235Z,88.58
2023-02-13T19:44:01.508Z,88.81
2023-02-13T19:46:30.268Z,88.34
2023-02-13T19:48:57.688Z,88.73
2023-02-13T19:51:29.524Z,88.45
2023-02-13T19:53:59.956Z,88.46
2023-02-13T19:56:27.658Z,88.82
2023-02-13T19:58:54.904Z,88.16
2023-02-13T20:01:27.577Z,88.84
2023-02-13T20:03:55.012Z,88.94
2023-02-13T20:06:26.649Z,88.28
2023-02-13T20:08:54.726Z,87.93
2023-02-13T20:11:22.141Z,88.83
2023-02-13T20:14:00.475Z,88.61
2023-02-13T20:16:29.463Z,88.31
2023-02-13T20:18:56.761Z,88.66
2023-02-13T20:21:23.861Z,88.37
2023-02-13T20:23:52.597Z,88.58
2023-02-13T20:26:19.900Z,88.26
2023-02-13T20:28:49.385Z,88.37
2023-02-13T20:31:21.063Z,89.18
2023-02-13T20:33:50.897Z,88.74
2023-02-13T20:36:19.825Z,89.28
2023-02-13T20:38:47.080Z,88.63
2023-02-13T20:41:16.649Z,88.99
2023-02-13T20:43:44.969Z,89.19
2023-02-13T20:46:12.433Z,89.25
2023-02-13T20:48:40.701Z,88.99
2023-02-13T20:51:11.417Z,88.84
2023-02-13T20:53:39.680Z,88.87
2023-02-13T20:56:12.280Z,89.40
2023-02-13T20:58:40.681Z,89.11
2023-02-13T21:01:12.456Z,89.31
2023-02-13T21:03:39.373Z,89.05
2023-02-13T21:06:09.637Z,89.25
2023-02-13T21:08:38.592Z,89.68
2023-02-13T21:11:07.024Z,89.08
2023-02-13T21:13:35.310Z,89.55
2023-02-13T21:16:05.334Z,89.54
2023-02-13T21:18:32.458Z,89.24
2023-02-13T21:21:00.431Z,89.39
2023-02-13T21:23:29.322Z,89.13
2023-02-13T21:25:56.027Z,89.27
2023-02-13T21:28:23.732Z,89.83
2023-02-13T21:30:50.582Z,89.50
2023-02-13T21:33:17.769Z,90.00
2023-02-13T21:35:44.786Z,90.28
2023-02-13T21:38:12.421Z,89.87
2023-02-13T21:40:42.779Z,90.18
2023-02-13T21:43:10.288Z,89.77
2023-02-13T21:45:37.047Z,90.20
2023-02-13T21:48:04.582Z,90.49
2023-02-13T21:50:32.686Z,90.37
2023-02-13T21:52:59.481Z,90.19
2023-02-13T21:55:26.463Z,90.58
2023-02-13T21:57:54.986Z,91.04
2023-02-13T22:00:22.325Z,90.77
2023-02-13T22:02:49.230Z,90.92
2023-02-13T22:05:16.133Z,91.17
2023-02-13T22:07:43.263Z,91.17
2023-02-13T22:10:10.868Z,91.57
2023-02-13T22:12:37.812Z,91.32
2023-02-13T22:15:07.800Z,90.87
2023-02-13T22:17:37.504Z,91.07
2023-02-13T22:20:05.482Z,91.15
2023-02-13T22:22:32.458Z,90.90
2023-02-13T22:24:59.261Z,91.82
2023-02-13T22:27:26.094Z,91.51
2023-02-13T22:29:53.552Z,92.11
2023-02-13T22:32:22.383Z,92.00
2023-02-13T22:34:49.311Z,91.70
2023-02-13T22:37:16.613Z,92.21
2023-02-13T22:39:43.495Z,92.13
2023-02-13T22:42:10.682Z,91.68
2023-02-13T22:44:37.773Z,91.46
2023-02-13T22:47:06.453Z,92.15
2023-02-13T22:49:36.847Z,92.72
2023-02-13T22:52:03.962Z,92.28
2023-02-13T22:54:31.089Z,92.58
2023-02-13T22:56:58.469Z,92.66
2023-02-13T22:59:26.096Z,92.64
2023-02-13T23:01:52.899Z,92.60
2023-02-13T23:04:21.049Z,92.79
2023-02-13T23:06:49.556Z,92.47
2023-02-13T23:09:16.396Z,92.65
2023-02-13T23:11:43.315Z,92.78
2023-02-13T23:14:10.742Z,92.43
2023-02-13T23:16:38.407Z,92.35
2023-02-13T23:19:06.227Z,92.68
2023-02-13T23:21:34.334Z,92.40
2023-02-13T23:24:02.613Z,93.11
2023-02-13T23:26:29.358Z,92.65
2023-02-13T23:28:56.431Z,92.89
2023-02-13T23:31:23.224Z,93.27
2023-02-13T23:33:49.998Z,92.98
2023-02-13T23:36:17.017Z,92.86
2023-02-13T23:38:44.284Z,93.28
2023-02-13T23:41:12.927Z,92.67
2023-02-13T23:43:39.928Z,93.53
2023-02-13T23:46:07.657Z,93.69
2023-02-13T23:48:34.986Z,93.79
2023-02-13T23:51:02.365Z,93.30
2023-02-13T23:53:29.539Z,93.41
2023-02-13T23:55:56.690Z,93.63
2023-02-13T23:58:27.925Z,93.15
